sensor_id;sensor_type;location;lat;lon;timestamp;P1;durP1;ratioP1;P2;durP2;ratioP2
27804;SDS011;15183;51.350;11.102;2023-06-10T00:00:42;5.78;;;3.40;;
27804;SDS011;15183;51.350;11.102;2023-06-10T00:03:10;6.50;;;3.92;;
27804;SDS011;15183;51.350;11.102;2023-06-10T00:05:36;5.88;;;3.40;;
27804;SDS011;15183;51.350;11.102;2023-06-10T00:08:04;5.28;;;4.13;;
27804;SDS011;15183;51.350;11.102;2023-06-10T00:10:34;5.90;;;4.18;;
27804;SDS011;15183;51.350;11.102;2023-06-10T00:13:02;7.30;;;4.40;;
27804;SDS011;15183;51.350;11.102;2023-06-10T00:15:30;4.47;;;3.70;;
27804;SDS011;15183;51.350;11.102;2023-06-10T00:17:57;5.78;;;4.00;;
27804;SDS011;15183;51.350;11.102;2023-06-10T00:20:23;8.43;;;3.97;;
27804;SDS011;15183;51.350;11.102;2023-06-10T00:22:50;7.38;;;4.00;;
27804;SDS011;15183;51.350;11.102;2023-06-10T00:25:18;5.03;;;3.72;;
27804;SDS011;15183;51.350;11.102;2023-06-10T00:27:44;6.75;;;3.35;;
27804;SDS011;15183;51.350;11.102;2023-06-10T00:30:11;6.20;;;3.88;;
27804;SDS011;15183;51.350;11.102;2023-06-10T00:32:38;8.23;;;3.83;;
27804;SDS011;15183;51.350;11.102;2023-06-10T00:35:04;5.57;;;3.42;;
27804;SDS011;15183;51.350;11.102;2023-06-10T00:37:32;4.53;;;3.70;;
27804;SDS011;15183;51.350;11.102;2023-06-10T00:40:04;4.72;;;3.80;;
27804;SDS011;15183;51.350;11.102;2023-06-10T00:42:31;4.38;;;3.60;;
27804;SDS011;15183;51.350;11.102;2023-06-10T00:44:58;5.90;;;3.95;;
27804;SDS011;15183;51.350;11.102;2023-06-10T00:47:25;5.25;;;3.17;;
27804;SDS011;15183;51.350;11.102;2023-06-10T00:49:51;4.60;;;3.10;;
27804;SDS011;15183;51.350;11.102;2023-06-10T00:52:19;6.03;;;3.25;;
27804;SDS011;15183;51.350;11.102;2023-06-10T00:54:47;4.78;;;3.10;;
27804;SDS011;15183;51.350;11.102;2023-06-10T00:57:14;3.80;;;3.30;;
27804;SDS011;15183;51.350;11.102;2023-06-10T00:59:41;3.55;;;3.17;;
27804;SDS011;15183;51.350;11.102;2023-06-10T01:02:13;4.78;;;3.35;;
27804;SDS011;15183;51.350;11.102;2023-06-10T01:04:39;6.28;;;3.15;;
27804;SDS011;15183;51.350;11.102;2023-06-10T01:07:12;4.00;;;3.20;;
27804;SDS011;15183;51.350;11.102;2023-06-10T01:10:22;3.67;;;3.03;;
27804;SDS011;15183;51.350;11.102;2023-06-10T01:13:07;3.22;;;2.92;;
27804;SDS011;15183;51.350;11.102;2023-06-10T01:15:38;5.97;;;3.10;;
27804;SDS011;15183;51.350;11.102;2023-06-10T01:18:08;4.60;;;3.20;;
27804;SDS011;15183;51.350;11.102;2023-06-10T01:20:36;5.70;;;3.03;;
27804;SDS011;15183;51.350;11.102;2023-06-10T01:23:06;7.90;;;3.45;;
27804;SDS011;15183;51.350;11.102;2023-06-10T01:25:35;5.13;;;3.50;;
27804;SDS011;15183;51.350;11.102;2023-06-10T01:33:43;4.95;;;2.72;;
27804;SDS011;15183;51.350;11.102;2023-06-10T01:36:13;4.57;;;2.75;;
27804;SDS011;15183;51.350;11.102;2023-06-10T01:38:43;4.25;;;2.67;;
27804;SDS011;15183;51.350;11.102;2023-06-10T01:41:12;4.63;;;2.83;;
27804;SDS011;15183;51.350;11.102;2023-06-10T01:43:42;3.45;;;2.22;;
27804;SDS011;15183;51.350;11.102;2023-06-10T01:46:10;3.53;;;2.78;;
27804;SDS011;15183;51.350;11.102;2023-06-10T01:48:37;4.03;;;2.85;;
27804;SDS011;15183;51.350;11.102;2023-06-10T01:51:04;6.20;;;3.00;;
27804;SDS011;15183;51.350;11.102;2023-06-10T01:53:31;5.78;;;2.72;;
27804;SDS011;15183;51.350;11.102;2023-06-10T01:55:57;5.13;;;2.90;;
27804;SDS011;15183;51.350;11.102;2023-06-10T01:58:24;4.82;;;2.53;;
27804;SDS011;15183;51.350;11.102;2023-06-10T02:00:50;3.65;;;2.97;;
27804;SDS011;15183;51.350;11.102;2023-06-10T02:03:17;5.75;;;2.60;;
27804;SDS011;15183;51.350;11.102;2023-06-10T02:05:44;5.13;;;3.00;;
27804;SDS011;15183;51.350;11.102;2023-06-10T02:08:10;4.53;;;2.53;;
27804;SDS011;15183;51.350;11.102;2023-06-10T02:10:37;3.97;;;2.47;;
27804;SDS011;15183;51.350;11.102;2023-06-10T02:13:03;6.57;;;2.72;;
27804;SDS011;15183;51.350;11.102;2023-06-10T02:15:30;3.58;;;2.70;;
27804;SDS011;15183;51.350;11.102;2023-06-10T02:17:57;4.95;;;2.70;;
27804;SDS011;15183;51.350;11.102;2023-06-10T02:20:23;6.43;;;2.97;;
27804;SDS011;15183;51.350;11.102;2023-06-10T02:22:50;4.13;;;2.67;;
27804;SDS011;15183;51.350;11.102;2023-06-10T02:25:16;4.65;;;2.22;;
27804;SDS011;15183;51.350;11.102;2023-06-10T02:27:42;4.05;;;2.85;;
27804;SDS011;15183;51.350;11.102;2023-06-10T02:30:09;6.57;;;3.30;;
27804;SDS011;15183;51.350;11.102;2023-06-10T02:32:36;4.28;;;2.67;;
27804;SDS011;15183;51.350;11.102;2023-06-10T02:35:03;4.85;;;2.80;;
27804;SDS011;15183;51.350;11.102;2023-06-10T02:37:29;4.60;;;2.67;;
27804;SDS011;15183;51.350;11.102;2023-06-10T02:39:56;4.43;;;2.95;;
27804;SDS011;15183;51.350;11.102;2023-06-10T02:42:22;7.53;;;2.75;;
27804;SDS011;15183;51.350;11.102;2023-06-10T02:44:48;4.30;;;2.38;;
27804;SDS011;15183;51.350;11.102;2023-06-10T02:47:15;6.47;;;2.95;;
27804;SDS011;15183;51.350;11.102;2023-06-10T02:49:42;6.10;;;3.08;;
27804;SDS011;15183;51.350;11.102;2023-06-10T02:52:08;4.57;;;2.97;;
27804;SDS011;15183;51.350;11.102;2023-06-10T02:54:37;7.70;;;2.70;;
27804;SDS011;15183;51.350;11.102;2023-06-10T02:57:03;3.20;;;2.38;;
27804;SDS011;15183;51.350;11.102;2023-06-10T02:59:31;2.42;;;2.15;;
27804;SDS011;15183;51.350;11.102;2023-06-10T03:01:57;4.68;;;2.60;;
27804;SDS011;15183;51.350;11.102;2023-06-10T03:04:24;5.88;;;2.45;;
27804;SDS011;15183;51.350;11.102;2023-06-10T03:06:54;6.35;;;2.80;;
27804;SDS011;15183;51.350;11.102;2023-06-10T03:09:21;6.90;;;2.70;;
27804;SDS011;15183;51.350;11.102;2023-06-10T03:11:47;5.30;;;2.72;;
27804;SDS011;15183;51.350;11.102;2023-06-10T03:14:13;3.05;;;2.13;;
27804;SDS011;15183;51.350;11.102;2023-06-10T03:16:40;4.63;;;2.80;;
27804;SDS011;15183;51.350;11.102;2023-06-10T03:19:08;3.65;;;2.78;;
27804;SDS011;15183;51.350;11.102;2023-06-10T03:21:34;6.35;;;2.50;;
27804;SDS011;15183;51.350;11.102;2023-06-10T03:24:03;7.43;;;3.30;;
27804;SDS011;15183;51.350;11.102;2023-06-10T03:26:30;3.30;;;2.60;;
27804;SDS011;15183;51.350;11.102;2023-06-10T03:28:56;7.80;;;3.03;;
27804;SDS011;15183;51.350;11.102;2023-06-10T03:31:22;4.50;;;2.75;;
27804;SDS011;15183;51.350;11.102;2023-06-10T03:33:50;4.15;;;2.42;;
27804;SDS011;15183;51.350;11.102;2023-06-10T03:36:16;6.25;;;2.90;;
27804;SDS011;15183;51.350;11.102;2023-06-10T03:38:43;6.22;;;2.72;;
27804;SDS011;15183;51.350;11.102;2023-06-10T03:41:09;3.47;;;2.47;;
27804;SDS011;15183;51.350;11.102;2023-06-10T03:43:36;3.72;;;2.83;;
27804;SDS011;15183;51.350;11.102;2023-06-10T03:46:04;4.05;;;2.70;;
27804;SDS011;15183;51.350;11.102;2023-06-10T03:48:30;3.80;;;2.72;;
27804;SDS011;15183;51.350;11.102;2023-06-10T03:50:57;4.45;;;2.42;;
27804;SDS011;15183;51.350;11.102;2023-06-10T03:53:24;3.90;;;2.40;;
27804;SDS011;15183;51.350;11.102;2023-06-10T03:55:50;4.35;;;2.90;;
27804;SDS011;15183;51.350;11.102;2023-06-10T03:58:16;6.25;;;2.38;;
27804;SDS011;15183;51.350;11.102;2023-06-10T04:00:43;4.85;;;2.45;;
27804;SDS011;15183;51.350;11.102;2023-06-10T04:03:11;6.53;;;2.88;;
27804;SDS011;15183;51.350;11.102;2023-06-10T04:05:41;5.15;;;2.40;;
27804;SDS011;15183;51.350;11.102;2023-06-10T04:08:08;5.32;;;2.70;;
27804;SDS011;15183;51.350;11.102;2023-06-10T04:10:34;6.78;;;3.17;;
27804;SDS011;15183;51.350;11.102;2023-06-10T04:13:01;5.22;;;2.20;;
27804;SDS011;15183;51.350;11.102;2023-06-10T04:15:28;9.80;;;3.58;;
27804;SDS011;15183;51.350;11.102;2023-06-10T04:17:58;4.88;;;2.35;;
27804;SDS011;15183;51.350;11.102;2023-06-10T04:20:25;8.23;;;2.45;;
27804;SDS011;15183;51.350;11.102;2023-06-10T04:22:52;7.00;;;2.72;;
27804;SDS011;15183;51.350;11.102;2023-06-10T04:25:18;5.32;;;2.75;;
27804;SDS011;15183;51.350;11.102;2023-06-10T04:27:45;2.53;;;2.33;;
27804;SDS011;15183;51.350;11.102;2023-06-10T04:30:11;4.28;;;2.30;;
27804;SDS011;15183;51.350;11.102;2023-06-10T04:32:39;4.20;;;2.63;;
27804;SDS011;15183;51.350;11.102;2023-06-10T04:35:05;5.45;;;2.28;;
27804;SDS011;15183;51.350;11.102;2023-06-10T04:37:32;4.75;;;2.50;;
27804;SDS011;15183;51.350;11.102;2023-06-10T04:39:59;5.60;;;2.88;;
27804;SDS011;15183;51.350;11.102;2023-06-10T04:42:25;5.00;;;2.90;;
27804;SDS011;15183;51.350;11.102;2023-06-10T04:44:52;4.15;;;2.65;;
27804;SDS011;15183;51.350;11.102;2023-06-10T04:47:18;6.45;;;2.50;;
27804;SDS011;15183;51.350;11.102;2023-06-10T04:49:45;4.63;;;2.78;;
27804;SDS011;15183;51.350;11.102;2023-06-10T04:52:11;3.75;;;2.83;;
27804;SDS011;15183;51.350;11.102;2023-06-10T04:54:39;5.45;;;3.10;;
27804;SDS011;15183;51.350;11.102;2023-06-10T04:57:06;3.53;;;2.72;;
27804;SDS011;15183;51.350;11.102;2023-06-10T04:59:33;3.88;;;2.85;;
27804;SDS011;15183;51.350;11.102;2023-06-10T05:02:03;3.42;;;2.63;;
27804;SDS011;15183;51.350;11.102;2023-06-10T05:04:30;3.65;;;2.47;;
27804;SDS011;15183;51.350;11.102;2023-06-10T05:06:57;7.55;;;3.28;;
27804;SDS011;15183;51.350;11.102;2023-06-10T05:09:23;6.05;;;3.08;;
27804;SDS011;15183;51.350;11.102;2023-06-10T05:11:50;4.13;;;3.13;;
27804;SDS011;15183;51.350;11.102;2023-06-10T05:14:16;6.97;;;3.00;;
27804;SDS011;15183;51.350;11.102;2023-06-10T05:16:44;3.28;;;2.83;;
27804;SDS011;15183;51.350;11.102;2023-06-10T05:19:11;5.32;;;3.33;;
27804;SDS011;15183;51.350;11.102;2023-06-10T05:21:37;3.88;;;2.85;;
27804;SDS011;15183;51.350;11.102;2023-06-10T05:24:03;6.38;;;3.10;;
27804;SDS011;15183;51.350;11.102;2023-06-10T05:26:30;5.40;;;3.10;;
27804;SDS011;15183;51.350;11.102;2023-06-10T05:29:03;6.75;;;3.10;;
27804;SDS011;15183;51.350;11.102;2023-06-10T05:31:30;5.25;;;3.13;;
27804;SDS011;15183;51.350;11.102;2023-06-10T05:33:57;7.22;;;3.05;;
27804;SDS011;15183;51.350;11.102;2023-06-10T05:36:24;5.82;;;2.72;;
27804;SDS011;15183;51.350;11.102;2023-06-10T05:38:53;3.65;;;2.55;;
27804;SDS011;15183;51.350;11.102;2023-06-10T05:41:19;4.43;;;3.10;;
27804;SDS011;15183;51.350;11.102;2023-06-10T05:43:47;5.07;;;2.88;;
27804;SDS011;15183;51.350;11.102;2023-06-10T05:46:14;6.25;;;2.80;;
27804;SDS011;15183;51.350;11.102;2023-06-10T05:48:40;5.45;;;3.08;;
27804;SDS011;15183;51.350;11.102;2023-06-10T05:51:07;5.50;;;2.97;;
27804;SDS011;15183;51.350;11.102;2023-06-10T05:53:33;5.38;;;3.22;;
27804;SDS011;15183;51.350;11.102;2023-06-10T05:55:59;6.15;;;2.97;;
27804;SDS011;15183;51.350;11.102;2023-06-10T05:58:26;5.55;;;3.10;;
27804;SDS011;15183;51.350;11.102;2023-06-10T06:00:52;5.50;;;3.08;;
27804;SDS011;15183;51.350;11.102;2023-06-10T06:03:19;5.05;;;3.20;;
27804;SDS011;15183;51.350;11.102;2023-06-10T06:05:45;4.85;;;2.70;;
27804;SDS011;15183;51.350;11.102;2023-06-10T06:08:12;7.40;;;3.10;;
27804;SDS011;15183;51.350;11.102;2023-06-10T06:10:39;6.38;;;3.28;;
27804;SDS011;15183;51.350;11.102;2023-06-10T06:13:05;4.20;;;2.83;;
27804;SDS011;15183;51.350;11.102;2023-06-10T06:15:32;6.10;;;2.67;;
27804;SDS011;15183;51.350;11.102;2023-06-10T06:17:58;5.63;;;3.45;;
27804;SDS011;15183;51.350;11.102;2023-06-10T06:20:25;8.95;;;3.63;;
27804;SDS011;15183;51.350;11.102;2023-06-10T06:22:51;7.15;;;3.45;;
27804;SDS011;15183;51.350;11.102;2023-06-10T06:25:18;6.07;;;3.80;;
27804;SDS011;15183;51.350;11.102;2023-06-10T06:27:44;8.05;;;4.70;;
27804;SDS011;15183;51.350;11.102;2023-06-10T06:30:11;7.40;;;5.00;;
27804;SDS011;15183;51.350;11.102;2023-06-10T06:32:37;5.03;;;4.00;;
27804;SDS011;15183;51.350;11.102;2023-06-10T06:35:04;6.88;;;3.83;;
27804;SDS011;15183;51.350;11.102;2023-06-10T06:37:33;4.95;;;3.67;;
27804;SDS011;15183;51.350;11.102;2023-06-10T06:40:01;7.22;;;3.35;;
27804;SDS011;15183;51.350;11.102;2023-06-10T06:42:29;6.15;;;3.35;;
27804;SDS011;15183;51.350;11.102;2023-06-10T06:44:55;6.72;;;3.20;;
27804;SDS011;15183;51.350;11.102;2023-06-10T06:47:22;5.95;;;3.63;;
27804;SDS011;15183;51.350;11.102;2023-06-10T06:49:48;7.53;;;3.42;;
27804;SDS011;15183;51.350;11.102;2023-06-10T06:52:15;5.70;;;3.50;;
27804;SDS011;15183;51.350;11.102;2023-06-10T06:54:41;6.05;;;3.42;;
27804;SDS011;15183;51.350;11.102;2023-06-10T06:57:08;5.13;;;3.53;;
27804;SDS011;15183;51.350;11.102;2023-06-10T06:59:34;5.72;;;3.75;;
27804;SDS011;15183;51.350;11.102;2023-06-10T07:02:01;6.88;;;3.50;;
27804;SDS011;15183;51.350;11.102;2023-06-10T07:04:29;6.22;;;3.78;;
27804;SDS011;15183;51.350;11.102;2023-06-10T07:06:55;5.43;;;3.65;;
27804;SDS011;15183;51.350;11.102;2023-06-10T07:09:22;8.00;;;4.05;;
27804;SDS011;15183;51.350;11.102;2023-06-10T07:11:48;5.57;;;3.42;;
27804;SDS011;15183;51.350;11.102;2023-06-10T07:14:15;6.78;;;3.97;;
27804;SDS011;15183;51.350;11.102;2023-06-10T07:16:41;7.68;;;4.15;;
27804;SDS011;15183;51.350;11.102;2023-06-10T07:19:07;6.90;;;4.07;;
27804;SDS011;15183;51.350;11.102;2023-06-10T07:21:34;7.60;;;4.50;;
27804;SDS011;15183;51.350;11.102;2023-06-10T07:24:01;6.30;;;3.97;;
27804;SDS011;15183;51.350;11.102;2023-06-10T07:26:28;6.40;;;4.20;;
27804;SDS011;15183;51.350;11.102;2023-06-10T07:28:54;5.90;;;4.00;;
27804;SDS011;15183;51.350;11.102;2023-06-10T07:31:21;7.38;;;4.07;;
27804;SDS011;15183;51.350;11.102;2023-06-10T07:33:48;5.93;;;3.72;;
27804;SDS011;15183;51.350;11.102;2023-06-10T07:36:15;4.68;;;3.90;;
27804;SDS011;15183;51.350;11.102;2023-06-10T07:38:41;6.68;;;3.88;;
27804;SDS011;15183;51.350;11.102;2023-06-10T07:41:08;6.07;;;3.88;;
27804;SDS011;15183;51.350;11.102;2023-06-10T07:43:36;9.60;;;4.05;;
27804;SDS011;15183;51.350;11.102;2023-06-10T07:46:03;9.38;;;4.22;;
27804;SDS011;15183;51.350;11.102;2023-06-10T07:48:31;7.18;;;3.97;;
27804;SDS011;15183;51.350;11.102;2023-06-10T07:50:57;6.57;;;4.57;;
27804;SDS011;15183;51.350;11.102;2023-06-10T07:53:24;7.95;;;4.13;;
27804;SDS011;15183;51.350;11.102;2023-06-10T07:55:50;5.05;;;4.38;;
27804;SDS011;15183;51.350;11.102;2023-06-10T07:58:16;7.28;;;4.47;;
27804;SDS011;15183;51.350;11.102;2023-06-10T08:00:43;8.45;;;4.75;;
27804;SDS011;15183;51.350;11.102;2023-06-10T08:03:09;7.72;;;4.95;;
27804;SDS011;15183;51.350;11.102;2023-06-10T08:05:36;9.38;;;5.38;;
27804;SDS011;15183;51.350;11.102;2023-06-10T08:08:02;8.07;;;4.82;;
27804;SDS011;15183;51.350;11.102;2023-06-10T08:10:30;7.03;;;4.80;;
27804;SDS011;15183;51.350;11.102;2023-06-10T08:12:58;10.75;;;5.03;;
27804;SDS011;15183;51.350;11.102;2023-06-10T08:15:24;7.03;;;4.60;;
27804;SDS011;15183;51.350;11.102;2023-06-10T08:17:50;6.57;;;5.28;;
27804;SDS011;15183;51.350;11.102;2023-06-10T08:20:17;9.63;;;5.05;;
27804;SDS011;15183;51.350;11.102;2023-06-10T08:22:44;6.90;;;5.40;;
27804;SDS011;15183;51.350;11.102;2023-06-10T08:25:10;10.07;;;4.93;;
27804;SDS011;15183;51.350;11.102;2023-06-10T08:27:37;7.75;;;4.70;;
27804;SDS011;15183;51.350;11.102;2023-06-10T08:30:03;10.75;;;5.00;;
27804;SDS011;15183;51.350;11.102;2023-06-10T08:32:30;7.72;;;5.28;;
27804;SDS011;15183;51.350;11.102;2023-06-10T08:34:57;8.82;;;5.28;;
27804;SDS011;15183;51.350;11.102;2023-06-10T08:37:23;11.93;;;5.85;;
27804;SDS011;15183;51.350;11.102;2023-06-10T08:39:50;8.02;;;4.85;;
27804;SDS011;15183;51.350;11.102;2023-06-10T08:42:21;5.72;;;4.90;;
27804;SDS011;15183;51.350;11.102;2023-06-10T08:45:05;6.78;;;4.60;;
27804;SDS011;15183;51.350;11.102;2023-06-10T08:47:37;8.50;;;5.72;;
27804;SDS011;15183;51.350;11.102;2023-06-10T08:50:08;7.03;;;5.47;;
27804;SDS011;15183;51.350;11.102;2023-06-10T08:52:35;10.63;;;5.65;;
27804;SDS011;15183;51.350;11.102;2023-06-10T08:55:04;8.82;;;5.15;;
27804;SDS011;15183;51.350;11.102;2023-06-10T08:57:45;6.53;;;5.15;;
27804;SDS011;15183;51.350;11.102;2023-06-10T09:00:13;7.75;;;5.30;;
27804;SDS011;15183;51.350;11.102;2023-06-10T09:02:42;10.85;;;5.57;;
27804;SDS011;15183;51.350;11.102;2023-06-10T09:05:09;11.48;;;6.43;;
27804;SDS011;15183;51.350;11.102;2023-06-10T09:07:37;8.65;;;6.63;;
27804;SDS011;15183;51.350;11.102;2023-06-10T09:10:04;10.15;;;6.00;;
27804;SDS011;15183;51.350;11.102;2023-06-10T09:12:35;10.82;;;6.18;;
27804;SDS011;15183;51.350;11.102;2023-06-10T09:15:04;8.65;;;6.63;;
27804;SDS011;15183;51.350;11.102;2023-06-10T09:17:32;11.98;;;6.40;;
27804;SDS011;15183;51.350;11.102;2023-06-10T09:19:59;11.13;;;6.97;;
27804;SDS011;15183;51.350;11.102;2023-06-10T09:22:28;7.18;;;5.70;;
27804;SDS011;15183;51.350;11.102;2023-06-10T09:25:02;10.55;;;6.72;;
27804;SDS011;15183;51.350;11.102;2023-06-10T09:27:33;14.13;;;6.43;;
27804;SDS011;15183;51.350;11.102;2023-06-10T09:30:29;10.63;;;7.28;;
27804;SDS011;15183;51.350;11.102;2023-06-10T09:33:01;10.80;;;6.38;;
27804;SDS011;15183;51.350;11.102;2023-06-10T09:35:35;8.85;;;5.85;;
27804;SDS011;15183;51.350;11.102;2023-06-10T09:38:02;10.20;;;6.05;;
27804;SDS011;15183;51.350;11.102;2023-06-10T09:40:28;8.98;;;6.10;;
27804;SDS011;15183;51.350;11.102;2023-06-10T09:42:56;11.35;;;6.50;;
27804;SDS011;15183;51.350;11.102;2023-06-10T09:45:29;8.57;;;6.20;;
27804;SDS011;15183;51.350;11.102;2023-06-10T09:48:00;12.55;;;6.55;;
27804;SDS011;15183;51.350;11.102;2023-06-10T09:50:26;10.27;;;7.10;;
27804;SDS011;15183;51.350;11.102;2023-06-10T09:52:53;9.63;;;6.40;;
27804;SDS011;15183;51.350;11.102;2023-06-10T09:55:19;9.25;;;6.28;;
27804;SDS011;15183;51.350;11.102;2023-06-10T09:57:48;9.75;;;6.35;;
27804;SDS011;15183;51.350;11.102;2023-06-10T10:00:18;8.15;;;6.28;;
27804;SDS011;15183;51.350;11.102;2023-06-10T10:02:49;6.13;;;5.53;;
27804;SDS011;15183;51.350;11.102;2023-06-10T10:05:18;7.03;;;6.20;;
27804;SDS011;15183;51.350;11.102;2023-06-10T10:07:47;8.75;;;5.88;;
27804;SDS011;15183;51.350;11.102;2023-06-10T10:10:14;11.05;;;6.22;;
27804;SDS011;15183;51.350;11.102;2023-06-10T10:12:43;9.55;;;6.18;;
27804;SDS011;15183;51.350;11.102;2023-06-10T10:15:13;7.85;;;5.72;;
27804;SDS011;15183;51.350;11.102;2023-06-10T10:18:04;7.18;;;5.85;;
27804;SDS011;15183;51.350;11.102;2023-06-10T10:20:36;13.80;;;6.72;;
27804;SDS011;15183;51.350;11.102;2023-06-10T10:23:12;7.50;;;5.60;;
27804;SDS011;15183;51.350;11.102;2023-06-10T10:25:43;8.45;;;5.45;;
27804;SDS011;15183;51.350;11.102;2023-06-10T10:28:19;9.90;;;6.00;;
27804;SDS011;15183;51.350;11.102;2023-06-10T10:30:50;5.93;;;5.32;;
27804;SDS011;15183;51.350;11.102;2023-06-10T10:33:28;8.40;;;5.18;;
27804;SDS011;15183;51.350;11.102;2023-06-10T10:36:04;8.63;;;5.20;;
27804;SDS011;15183;51.350;11.102;2023-06-10T10:38:31;7.63;;;4.90;;
27804;SDS011;15183;51.350;11.102;2023-06-10T10:40:58;9.85;;;5.93;;
27804;SDS011;15183;51.350;11.102;2023-06-10T10:43:27;6.80;;;5.18;;
27804;SDS011;15183;51.350;11.102;2023-06-10T10:46:01;7.68;;;5.28;;
27804;SDS011;15183;51.350;11.102;2023-06-10T10:48:37;6.57;;;4.95;;
27804;SDS011;15183;51.350;11.102;2023-06-10T10:51:06;6.63;;;5.45;;
27804;SDS011;15183;51.350;11.102;2023-06-10T10:53:34;12.80;;;5.10;;
27804;SDS011;15183;51.350;11.102;2023-06-10T10:56:06;11.05;;;4.72;;
27804;SDS011;15183;51.350;11.102;2023-06-10T10:58:40;6.43;;;4.57;;
27804;SDS011;15183;51.350;11.102;2023-06-10T11:01:13;7.20;;;5.13;;
27804;SDS011;15183;51.350;11.102;2023-06-10T11:03:44;5.50;;;4.75;;
27804;SDS011;15183;51.350;11.102;2023-06-10T11:06:13;8.32;;;4.80;;
27804;SDS011;15183;51.350;11.102;2023-06-10T11:11:26;6.28;;;4.68;;
27804;SDS011;15183;51.350;11.102;2023-06-10T11:13:57;5.43;;;4.57;;
27804;SDS011;15183;51.350;11.102;2023-06-10T11:16:27;9.05;;;4.57;;
27804;SDS011;15183;51.350;11.102;2023-06-10T11:18:54;7.72;;;5.32;;
27804;SDS011;15183;51.350;11.102;2023-06-10T11:21:25;6.32;;;4.20;;
27804;SDS011;15183;51.350;11.102;2023-06-10T11:23:52;5.93;;;4.68;;
27804;SDS011;15183;51.350;11.102;2023-06-10T11:26:19;7.78;;;4.72;;
27804;SDS011;15183;51.350;11.102;2023-06-10T11:31:19;7.35;;;5.10;;
27804;SDS011;15183;51.350;11.102;2023-06-10T11:33:48;8.25;;;5.28;;
27804;SDS011;15183;51.350;11.102;2023-06-10T11:36:26;6.90;;;4.80;;
27804;SDS011;15183;51.350;11.102;2023-06-10T11:38:57;6.93;;;4.75;;
27804;SDS011;15183;51.350;11.102;2023-06-10T11:41:25;5.93;;;4.75;;
27804;SDS011;15183;51.350;11.102;2023-06-10T11:43:53;7.55;;;5.10;;
27804;SDS011;15183;51.350;11.102;2023-06-10T11:46:23;9.82;;;5.53;;
27804;SDS011;15183;51.350;11.102;2023-06-10T11:48:53;5.55;;;4.68;;
27804;SDS011;15183;51.350;11.102;2023-06-10T11:51:25;8.30;;;5.07;;
27804;SDS011;15183;51.350;11.102;2023-06-10T11:53:54;7.05;;;5.20;;
27804;SDS011;15183;51.350;11.102;2023-06-10T11:56:24;7.78;;;4.63;;
27804;SDS011;15183;51.350;11.102;2023-06-10T11:58:53;7.43;;;5.07;;
27804;SDS011;15183;51.350;11.102;2023-06-10T12:01:30;5.93;;;5.05;;
27804;SDS011;15183;51.350;11.102;2023-06-10T12:04:03;5.93;;;4.82;;
27804;SDS011;15183;51.350;11.102;2023-06-10T12:06:52;11.52;;;5.40;;
27804;SDS011;15183;51.350;11.102;2023-06-10T12:11:48;6.05;;;4.60;;
27804;SDS011;15183;51.350;11.102;2023-06-10T12:17:22;4.97;;;4.22;;
27804;SDS011;15183;51.350;11.102;2023-06-10T12:20:27;9.40;;;4.85;;
27804;SDS011;15183;51.350;11.102;2023-06-10T12:23:07;6.55;;;4.43;;
27804;SDS011;15183;51.350;11.102;2023-06-10T12:25:35;7.82;;;4.80;;
27804;SDS011;15183;51.350;11.102;2023-06-10T12:28:05;7.05;;;4.30;;
27804;SDS011;15183;51.350;11.102;2023-06-10T12:30:35;6.72;;;5.07;;
27804;SDS011;15183;51.350;11.102;2023-06-10T12:33:02;6.43;;;4.65;;
27804;SDS011;15183;51.350;11.102;2023-06-10T12:35:28;7.10;;;3.78;;
27804;SDS011;15183;51.350;11.102;2023-06-10T12:38:02;4.75;;;4.13;;
27804;SDS011;15183;51.350;11.102;2023-06-10T12:40:41;6.80;;;4.38;;
27804;SDS011;15183;51.350;11.102;2023-06-10T12:43:07;8.38;;;4.43;;
27804;SDS011;15183;51.350;11.102;2023-06-10T12:45:35;7.80;;;4.70;;
27804;SDS011;15183;51.350;11.102;2023-06-10T12:48:05;5.28;;;3.75;;
27804;SDS011;15183;51.350;11.102;2023-06-10T12:50:35;5.60;;;4.15;;
27804;SDS011;15183;51.350;11.102;2023-06-10T12:53:03;5.38;;;4.05;;
27804;SDS011;15183;51.350;11.102;2023-06-10T12:55:30;6.75;;;4.15;;
27804;SDS011;15183;51.350;11.102;2023-06-10T12:57:58;5.85;;;4.10;;
27804;SDS011;15183;51.350;11.102;2023-06-10T13:00:25;7.82;;;4.75;;
27804;SDS011;15183;51.350;11.102;2023-06-10T13:03:01;4.57;;;3.72;;
27804;SDS011;15183;51.350;11.102;2023-06-10T13:05:28;5.28;;;4.32;;
27804;SDS011;15183;51.350;11.102;2023-06-10T13:07:55;4.38;;;3.65;;
27804;SDS011;15183;51.350;11.102;2023-06-10T13:10:22;7.05;;;4.43;;
27804;SDS011;15183;51.350;11.102;2023-06-10T13:12:49;4.40;;;3.45;;
27804;SDS011;15183;51.350;11.102;2023-06-10T13:15:16;5.72;;;4.18;;
27804;SDS011;15183;51.350;11.102;2023-06-10T13:17:43;3.90;;;3.53;;
27804;SDS011;15183;51.350;11.102;2023-06-10T13:20:11;7.68;;;3.83;;
27804;SDS011;15183;51.350;11.102;2023-06-10T13:22:37;5.82;;;3.78;;
27804;SDS011;15183;51.350;11.102;2023-06-10T13:25:04;4.53;;;4.10;;
27804;SDS011;15183;51.350;11.102;2023-06-10T13:27:33;5.15;;;4.30;;
27804;SDS011;15183;51.350;11.102;2023-06-10T13:30:00;7.05;;;4.70;;
27804;SDS011;15183;51.350;11.102;2023-06-10T13:32:27;7.63;;;5.07;;
27804;SDS011;15183;51.350;11.102;2023-06-10T13:34:53;7.82;;;4.88;;
27804;SDS011;15183;51.350;11.102;2023-06-10T13:37:19;4.57;;;4.05;;
27804;SDS011;15183;51.350;11.102;2023-06-10T13:39:46;5.47;;;4.68;;
27804;SDS011;15183;51.350;11.102;2023-06-10T13:42:17;5.25;;;4.28;;
27804;SDS011;15183;51.350;11.102;2023-06-10T13:44:43;4.40;;;4.00;;
27804;SDS011;15183;51.350;11.102;2023-06-10T13:47:10;4.65;;;4.20;;
27804;SDS011;15183;51.350;11.102;2023-06-10T13:49:36;5.70;;;4.40;;
27804;SDS011;15183;51.350;11.102;2023-06-10T13:52:03;5.18;;;4.00;;
27804;SDS011;15183;51.350;11.102;2023-06-10T13:54:30;6.05;;;4.03;;
27804;SDS011;15183;51.350;11.102;2023-06-10T13:56:56;4.80;;;3.63;;
27804;SDS011;15183;51.350;11.102;2023-06-10T13:59:23;9.50;;;4.22;;
27804;SDS011;15183;51.350;11.102;2023-06-10T14:01:49;5.82;;;4.95;;
27804;SDS011;15183;51.350;11.102;2023-06-10T14:04:16;5.10;;;4.60;;
27804;SDS011;15183;51.350;11.102;2023-06-10T14:06:42;6.15;;;4.55;;
27804;SDS011;15183;51.350;11.102;2023-06-10T14:09:09;6.78;;;4.47;;
27804;SDS011;15183;51.350;11.102;2023-06-10T14:11:35;6.03;;;4.30;;
27804;SDS011;15183;51.350;11.102;2023-06-10T14:14:02;5.18;;;4.65;;
27804;SDS011;15183;51.350;11.102;2023-06-10T14:16:28;4.90;;;4.47;;
27804;SDS011;15183;51.350;11.102;2023-06-10T14:18:55;5.22;;;4.30;;
27804;SDS011;15183;51.350;11.102;2023-06-10T14:21:21;4.57;;;4.05;;
27804;SDS011;15183;51.350;11.102;2023-06-10T14:23:47;5.75;;;4.30;;
27804;SDS011;15183;51.350;11.102;2023-06-10T14:26:15;5.82;;;4.43;;
27804;SDS011;15183;51.350;11.102;2023-06-10T14:28:41;5.88;;;4.50;;
27804;SDS011;15183;51.350;11.102;2023-06-10T14:31:07;5.28;;;4.68;;
27804;SDS011;15183;51.350;11.102;2023-06-10T14:33:34;3.97;;;3.58;;
27804;SDS011;15183;51.350;11.102;2023-06-10T14:36:01;5.00;;;4.50;;
27804;SDS011;15183;51.350;11.102;2023-06-10T14:38:27;5.35;;;3.97;;
27804;SDS011;15183;51.350;11.102;2023-06-10T14:40:53;7.03;;;5.03;;
27804;SDS011;15183;51.350;11.102;2023-06-10T14:43:20;4.45;;;4.05;;
27804;SDS011;15183;51.350;11.102;2023-06-10T14:45:46;5.43;;;4.93;;
27804;SDS011;15183;51.350;11.102;2023-06-10T14:48:13;6.28;;;4.28;;
27804;SDS011;15183;51.350;11.102;2023-06-10T14:50:39;31.50;;;4.60;;
27804;SDS011;15183;51.350;11.102;2023-06-10T14:53:10;8.98;;;3.55;;
27804;SDS011;15183;51.350;11.102;2023-06-10T14:55:37;11.90;;;3.65;;